sensor_id;sensor_type;location;lat;lon;timestamp;temperature;humidity
31695;DHT22;18289;51.330;4.946;2023-02-22T00:00:37;6.70;99.90
31695;DHT22;18289;51.330;4.946;2023-02-22T00:03:19;6.70;99.90
31695;DHT22;18289;51.330;4.946;2023-02-22T00:05:57;6.70;99.90
31695;DHT22;18289;51.330;4.946;2023-02-22T00:08:26;6.50;99.90
31695;DHT22;18289;51.330;4.946;2023-02-22T00:11:03;6.40;99.90
31695;DHT22;18289;51.330;4.946;2023-02-22T00:13:29;6.40;99.90
31695;DHT22;18289;51.330;4.946;2023-02-22T00:15:56;6.40;99.90
31695;DHT22;18289;51.330;4.946;2023-02-22T00:18:23;6.30;99.90
31695;DHT22;18289;51.330;4.946;2023-02-22T00:20:48;6.40;99.90
31695;DHT22;18289;51.330;4.946;2023-02-22T00:23:20;6.50;99.90
31695;DHT22;18289;51.330;4.946;2023-02-22T00:25:48;6.70;99.90
31695;DHT22;18289;51.330;4.946;2023-02-22T00:28:16;6.70;99.90
31695;DHT22;18289;51.330;4.946;2023-02-22T00:30:42;6.70;99.90
31695;DHT22;18289;51.330;4.946;2023-02-22T00:33:10;6.60;99.90
31695;DHT22;18289;51.330;4.946;2023-02-22T00:35:36;6.60;99.90
31695;DHT22;18289;51.330;4.946;2023-02-22T00:38:03;6.70;99.90
31695;DHT22;18289;51.330;4.946;2023-02-22T00:40:31;6.70;99.90
31695;DHT22;18289;51.330;4.946;2023-02-22T00:43:01;6.70;99.90
31695;DHT22;18289;51.330;4.946;2023-02-22T00:45:29;6.60;99.90
31695;DHT22;18289;51.330;4.946;2023-02-22T00:47:56;6.60;99.90
31695;DHT22;18289;51.330;4.946;2023-02-22T00:50:24;6.60;99.90
31695;DHT22;18289;51.330;4.946;2023-02-22T00:52:51;6.60;99.90
31695;DHT22;18289;51.330;4.946;2023-02-22T00:55:22;6.80;99.90
31695;DHT22;18289;51.330;4.946;2023-02-22T00:57:49;6.80;99.90
31695;DHT22;18289;51.330;4.946;2023-02-22T01:00:22;6.70;99.90
31695;DHT22;18289;51.330;4.946;2023-02-22T01:02:48;6.70;99.90
31695;DHT22;18289;51.330;4.946;2023-02-22T01:05:17;6.60;99.90
31695;DHT22;18289;51.330;4.946;2023-02-22T01:07:43;6.50;99.90
31695;DHT22;18289;51.330;4.946;2023-02-22T01:10:10;6.30;99.90
31695;DHT22;18289;51.330;4.946;2023-02-22T01:12:36;6.40;99.90
31695;DHT22;18289;51.330;4.946;2023-02-22T01:15:04;6.50;99.90
31695;DHT22;18289;51.330;4.946;2023-02-22T01:17:31;6.70;99.90
31695;DHT22;18289;51.330;4.946;2023-02-22T01:19:57;6.70;99.90
31695;DHT22;18289;51.330;4.946;2023-02-22T01:22:22;6.50;99.90
31695;DHT22;18289;51.330;4.946;2023-02-22T01:24:49;6.40;99.90
31695;DHT22;18289;51.330;4.946;2023-02-22T01:27:16;6.40;99.90
31695;DHT22;18289;51.330;4.946;2023-02-22T01:29:43;6.40;99.90
31695;DHT22;18289;51.330;4.946;2023-02-22T01:32:09;6.30;99.90
31695;DHT22;18289;51.330;4.946;2023-02-22T01:34:37;6.20;99.90
31695;DHT22;18289;51.330;4.946;2023-02-22T01:37:03;6.20;99.90
31695;DHT22;18289;51.330;4.946;2023-02-22T01:39:31;6.40;99.90
31695;DHT22;18289;51.330;4.946;2023-02-22T01:41:56;6.40;99.90
31695;DHT22;18289;51.330;4.946;2023-02-22T01:44:29;6.50;99.90
31695;DHT22;18289;51.330;4.946;2023-02-22T01:46:57;6.40;99.90
31695;DHT22;18289;51.330;4.946;2023-02-22T01:49:35;6.30;99.90
31695;DHT22;18289;51.330;4.946;2023-02-22T01:52:05;6.30;99.90
31695;DHT22;18289;51.330;4.946;2023-02-22T01:54:37;6.50;99.90
31695;DHT22;18289;51.330;4.946;2023-02-22T01:59:46;6.30;99.90
31695;DHT22;18289;51.330;4.946;2023-02-22T02:02:13;6.20;99.90
31695;DHT22;18289;51.330;4.946;2023-02-22T02:04:40;6.10;99.90
31695;DHT22;18289;51.330;4.946;2023-02-22T02:07:10;6.30;99.90
31695;DHT22;18289;51.330;4.946;2023-02-22T02:09:51;6.20;99.90
31695;DHT22;18289;51.330;4.946;2023-02-22T02:12:19;6.20;99.90
31695;DHT22;18289;51.330;4.946;2023-02-22T02:14:45;6.20;99.90
31695;DHT22;18289;51.330;4.946;2023-02-22T02:17:14;6.00;99.90
31695;DHT22;18289;51.330;4.946;2023-02-22T02:33:31;5.50;99.90
31695;DHT22;18289;51.330;4.946;2023-02-22T02:36:15;5.60;99.90
31695;DHT22;18289;51.330;4.946;2023-02-22T02:38:50;5.50;99.90
31695;DHT22;18289;51.330;4.946;2023-02-22T02:41:18;5.60;99.90
31695;DHT22;18289;51.330;4.946;2023-02-22T02:49:07;5.70;99.90
31695;DHT22;18289;51.330;4.946;2023-02-22T02:51:41;5.60;99.90
31695;DHT22;18289;51.330;4.946;2023-02-22T02:54:09;5.60;99.90
31695;DHT22;18289;51.330;4.946;2023-02-22T02:56:36;5.50;99.90
31695;DHT22;18289;51.330;4.946;2023-02-22T02:59:02;5.40;99.90
31695;DHT22;18289;51.330;4.946;2023-02-22T03:01:42;5.40;99.90
31695;DHT22;18289;51.330;4.946;2023-02-22T03:11:59;5.30;99.90
31695;DHT22;18289;51.330;4.946;2023-02-22T03:14:41;5.40;99.90
31695;DHT22;18289;51.330;4.946;2023-02-22T03:17:24;5.50;99.90
31695;DHT22;18289;51.330;4.946;2023-02-22T03:19:58;5.60;99.90
31695;DHT22;18289;51.330;4.946;2023-02-22T03:22:38;5.70;99.90
31695;DHT22;18289;51.330;4.946;2023-02-22T03:25:15;5.60;99.90
31695;DHT22;18289;51.330;4.946;2023-02-22T03:27:47;5.60;99.90
31695;DHT22;18289;51.330;4.946;2023-02-22T03:30:21;5.60;99.90
31695;DHT22;18289;51.330;4.946;2023-02-22T03:32:51;5.70;99.90
31695;DHT22;18289;51.330;4.946;2023-02-22T03:35:22;5.70;99.90
31695;DHT22;18289;51.330;4.946;2023-02-22T03:37:54;5.70;99.90
31695;DHT22;18289;51.330;4.946;2023-02-22T03:40:32;5.80;99.90
31695;DHT22;18289;51.330;4.946;2023-02-22T03:43:07;5.80;99.90
31695;DHT22;18289;51.330;4.946;2023-02-22T03:45:35;5.90;99.90
31695;DHT22;18289;51.330;4.946;2023-02-22T03:51:11;5.70;99.90
31695;DHT22;18289;51.330;4.946;2023-02-22T03:53:39;5.60;99.90
31695;DHT22;18289;51.330;4.946;2023-02-22T03:56:08;5.60;99.90
31695;DHT22;18289;51.330;4.946;2023-02-22T03:58:38;5.60;99.90
31695;DHT22;18289;51.330;4.946;2023-02-22T04:01:05;5.70;99.90
31695;DHT22;18289;51.330;4.946;2023-02-22T04:03:30;5.50;99.90
31695;DHT22;18289;51.330;4.946;2023-02-22T04:05:56;5.40;99.90
31695;DHT22;18289;51.330;4.946;2023-02-22T04:08:22;5.30;99.90
31695;DHT22;18289;51.330;4.946;2023-02-22T04:10:47;5.30;99.90
31695;DHT22;18289;51.330;4.946;2023-02-22T04:13:13;5.30;99.90
31695;DHT22;18289;51.330;4.946;2023-02-22T04:15:39;5.40;99.90
31695;DHT22;18289;51.330;4.946;2023-02-22T04:18:05;5.20;99.90
31695;DHT22;18289;51.330;4.946;2023-02-22T04:20:31;5.30;99.90
31695;DHT22;18289;51.330;4.946;2023-02-22T04:22:57;5.30;99.90
31695;DHT22;18289;51.330;4.946;2023-02-22T04:25:23;5.30;99.90
31695;DHT22;18289;51.330;4.946;2023-02-22T04:27:49;5.30;99.90
31695;DHT22;18289;51.330;4.946;2023-02-22T04:30:18;5.20;99.90
31695;DHT22;18289;51.330;4.946;2023-02-22T04:32:44;5.10;99.90
31695;DHT22;18289;51.330;4.946;2023-02-22T04:35:09;5.10;99.90
31695;DHT22;18289;51.330;4.946;2023-02-22T04:37:35;5.30;99.90
31695;DHT22;18289;51.330;4.946;2023-02-22T04:40:02;5.40;99.90
31695;DHT22;18289;51.330;4.946;2023-02-22T04:42:31;5.40;99.90
31695;DHT22;18289;51.330;4.946;2023-02-22T04:44:57;5.30;99.90
31695;DHT22;18289;51.330;4.946;2023-02-22T04:47:22;5.30;99.90
31695;DHT22;18289;51.330;4.946;2023-02-22T04:49:48;5.30;99.90
31695;DHT22;18289;51.330;4.946;2023-02-22T04:52:14;5.30;99.90
31695;DHT22;18289;51.330;4.946;2023-02-22T04:54:40;5.30;99.90
31695;DHT22;18289;51.330;4.946;2023-02-22T04:57:08;5.50;99.90
31695;DHT22;18289;51.330;4.946;2023-02-22T04:59:34;5.40;99.90
31695;DHT22;18289;51.330;4.946;2023-02-22T05:02:00;5.60;99.90
31695;DHT22;18289;51.330;4.946;2023-02-22T05:04:25;5.60;99.90
31695;DHT22;18289;51.330;4.946;2023-02-22T05:06:51;5.80;99.90
31695;DHT22;18289;51.330;4.946;2023-02-22T05:09:17;5.60;99.90
31695;DHT22;18289;51.330;4.946;2023-02-22T05:11:43;5.60;99.90
31695;DHT22;18289;51.330;4.946;2023-02-22T05:14:11;5.50;99.90
31695;DHT22;18289;51.330;4.946;2023-02-22T05:16:37;5.50;99.90
31695;DHT22;18289;51.330;4.946;2023-02-22T05:19:03;5.60;99.90
31695;DHT22;18289;51.330;4.946;2023-02-22T05:21:28;5.50;99.90
31695;DHT22;18289;51.330;4.946;2023-02-22T05:23:54;5.40;99.90
31695;DHT22;18289;51.330;4.946;2023-02-22T05:26:20;5.30;99.90
31695;DHT22;18289;51.330;4.946;2023-02-22T05:28:46;5.50;99.90
31695;DHT22;18289;51.330;4.946;2023-02-22T05:31:11;5.40;99.90
31695;DHT22;18289;51.330;4.946;2023-02-22T05:33:37;5.30;99.90
31695;DHT22;18289;51.330;4.946;2023-02-22T05:36:04;5.30;99.90
31695;DHT22;18289;51.330;4.946;2023-02-22T05:38:32;5.20;99.90
31695;DHT22;18289;51.330;4.946;2023-02-22T05:40:58;5.10;99.90
31695;DHT22;18289;51.330;4.946;2023-02-22T05:43:24;5.20;99.90
31695;DHT22;18289;51.330;4.946;2023-02-22T05:45:50;5.10;99.90
31695;DHT22;18289;51.330;4.946;2023-02-22T05:48:16;5.20;99.90
31695;DHT22;18289;51.330;4.946;2023-02-22T05:50:41;5.30;99.90
31695;DHT22;18289;51.330;4.946;2023-02-22T05:53:08;5.30;99.90
31695;DHT22;18289;51.330;4.946;2023-02-22T05:55:34;5.30;99.90
31695;DHT22;18289;51.330;4.946;2023-02-22T05:58:00;5.30;99.90
31695;DHT22;18289;51.330;4.946;2023-02-22T06:00:28;5.40;99.90
31695;DHT22;18289;51.330;4.946;2023-02-22T06:03:05;5.30;99.90
31695;DHT22;18289;51.330;4.946;2023-02-22T06:05:31;5.30;99.90
31695;DHT22;18289;51.330;4.946;2023-02-22T06:07:57;5.30;99.90
31695;DHT22;18289;51.330;4.946;2023-02-22T06:10:24;5.30;99.90
31695;DHT22;18289;51.330;4.946;2023-02-22T06:12:50;5.20;99.90
31695;DHT22;18289;51.330;4.946;2023-02-22T06:15:18;5.10;99.90
31695;DHT22;18289;51.330;4.946;2023-02-22T06:17:44;5.20;99.90
31695;DHT22;18289;51.330;4.946;2023-02-22T06:20:12;5.20;99.90
31695;DHT22;18289;51.330;4.946;2023-02-22T06:22:38;5.20;99.90
31695;DHT22;18289;51.330;4.946;2023-02-22T06:25:08;5.20;99.90
31695;DHT22;18289;51.330;4.946;2023-02-22T06:27:34;5.30;99.90
31695;DHT22;18289;51.330;4.946;2023-02-22T06:30:00;5.30;99.90
31695;DHT22;18289;51.330;4.946;2023-02-22T06:32:26;5.20;99.90
31695;DHT22;18289;51.330;4.946;2023-02-22T06:34:52;5.30;99.90
31695;DHT22;18289;51.330;4.946;2023-02-22T06:37:18;5.20;99.90
31695;DHT22;18289;51.330;4.946;2023-02-22T06:39:43;5.10;99.90
31695;DHT22;18289;51.330;4.946;2023-02-22T06:42:09;5.00;99.90
31695;DHT22;18289;51.330;4.946;2023-02-22T06:44:35;5.00;99.90
31695;DHT22;18289;51.330;4.946;2023-02-22T06:47:00;4.90;99.90
31695;DHT22;18289;51.330;4.946;2023-02-22T06:49:26;4.90;99.90
31695;DHT22;18289;51.330;4.946;2023-02-22T06:51:53;4.90;99.90
31695;DHT22;18289;51.330;4.946;2023-02-22T06:54:19;5.00;99.90
31695;DHT22;18289;51.330;4.946;2023-02-22T06:56:45;4.90;99.90
31695;DHT22;18289;51.330;4.946;2023-02-22T06:59:11;5.00;99.90
31695;DHT22;18289;51.330;4.946;2023-02-22T07:01:39;5.10;99.90
31695;DHT22;18289;51.330;4.946;2023-02-22T07:04:05;5.00;99.90
31695;DHT22;18289;51.330;4.946;2023-02-22T07:06:31;5.00;99.90
31695;DHT22;18289;51.330;4.946;2023-02-22T07:08:57;5.00;99.90
31695;DHT22;18289;51.330;4.946;2023-02-22T07:11:22;5.00;99.90
31695;DHT22;18289;51.330;4.946;2023-02-22T07:13:48;4.90;99.90
31695;DHT22;18289;51.330;4.946;2023-02-22T07:16:14;5.00;99.90
31695;DHT22;18289;51.330;4.946;2023-02-22T07:18:39;5.10;99.90
31695;DHT22;18289;51.330;4.946;2023-02-22T07:21:05;5.10;99.90
31695;DHT22;18289;51.330;4.946;2023-02-22T07:23:32;5.20;99.90
31695;DHT22;18289;51.330;4.946;2023-02-22T07:26:00;5.20;99.90
31695;DHT22;18289;51.330;4.946;2023-02-22T07:28:26;5.30;99.90
31695;DHT22;18289;51.330;4.946;2023-02-22T07:30:52;5.30;99.90
31695;DHT22;18289;51.330;4.946;2023-02-22T07:33:17;5.40;99.90
31695;DHT22;18289;51.330;4.946;2023-02-22T07:35:45;5.40;99.90
31695;DHT22;18289;51.330;4.946;2023-02-22T07:38:13;5.50;99.90
31695;DHT22;18289;51.330;4.946;2023-02-22T07:40:39;5.60;99.90
31695;DHT22;18289;51.330;4.946;2023-02-22T07:43:20;5.50;99.90
31695;DHT22;18289;51.330;4.946;2023-02-22T07:45:48;5.50;99.90
31695;DHT22;18289;51.330;4.946;2023-02-22T07:48:15;5.50;99.90
31695;DHT22;18289;51.330;4.946;2023-02-22T07:50:41;5.60;99.90
31695;DHT22;18289;51.330;4.946;2023-02-22T07:53:13;5.70;99.90
31695;DHT22;18289;51.330;4.946;2023-02-22T07:55:40;5.70;99.90
31695;DHT22;18289;51.330;4.946;2023-02-22T07:58:07;5.80;99.90
31695;DHT22;18289;51.330;4.946;2023-02-22T08:00:39;5.80;99.90
31695;DHT22;18289;51.330;4.946;2023-02-22T08:03:07;5.90;99.90
31695;DHT22;18289;51.330;4.946;2023-02-22T08:05:35;6.00;99.90
31695;DHT22;18289;51.330;4.946;2023-02-22T08:08:01;6.10;99.90
31695;DHT22;18289;51.330;4.946;2023-02-22T08:10:27;6.20;99.90
31695;DHT22;18289;51.330;4.946;2023-02-22T08:12:54;6.40;99.90
31695;DHT22;18289;51.330;4.946;2023-02-22T08:15:34;6.60;99.90
31695;DHT22;18289;51.330;4.946;2023-02-22T08:18:02;6.70;99.90
31695;DHT22;18289;51.330;4.946;2023-02-22T08:20:28;6.60;99.90
31695;DHT22;18289;51.330;4.946;2023-02-22T08:22:55;6.80;99.90
31695;DHT22;18289;51.330;4.946;2023-02-22T08:25:24;6.90;99.90
31695;DHT22;18289;51.330;4.946;2023-02-22T08:27:50;7.00;99.90
31695;DHT22;18289;51.330;4.946;2023-02-22T08:30:21;7.00;99.90
31695;DHT22;18289;51.330;4.946;2023-02-22T08:32:48;7.20;99.90
31695;DHT22;18289;51.330;4.946;2023-02-22T08:35:15;7.30;99.90
31695;DHT22;18289;51.330;4.946;2023-02-22T08:37:45;7.20;99.90
31695;DHT22;18289;51.330;4.946;2023-02-22T08:40:12;7.40;99.90
31695;DHT22;18289;51.330;4.946;2023-02-22T08:42:38;7.50;99.90
31695;DHT22;18289;51.330;4.946;2023-02-22T08:45:04;7.70;99.90
31695;DHT22;18289;51.330;4.946;2023-02-22T08:47:30;7.80;99.90
31695;DHT22;18289;51.330;4.946;2023-02-22T08:49:55;7.70;99.90
31695;DHT22;18289;51.330;4.946;2023-02-22T08:52:21;7.80;99.90
31695;DHT22;18289;51.330;4.946;2023-02-22T08:54:47;7.80;99.90
31695;DHT22;18289;51.330;4.946;2023-02-22T08:57:13;7.80;99.90
31695;DHT22;18289;51.330;4.946;2023-02-22T08:59:39;8.00;99.90
31695;DHT22;18289;51.330;4.946;2023-02-22T09:02:09;8.40;99.90
31695;DHT22;18289;51.330;4.946;2023-02-22T09:04:38;8.50;99.90
31695;DHT22;18289;51.330;4.946;2023-02-22T09:07:03;8.40;99.90
31695;DHT22;18289;51.330;4.946;2023-02-22T09:09:29;8.40;99.90
31695;DHT22;18289;51.330;4.946;2023-02-22T09:11:55;8.70;99.90
31695;DHT22;18289;51.330;4.946;2023-02-22T09:14:20;8.80;99.90
31695;DHT22;18289;51.330;4.946;2023-02-22T09:16:46;8.70;99.90
31695;DHT22;18289;51.330;4.946;2023-02-22T09:19:12;8.70;99.90
31695;DHT22;18289;51.330;4.946;2023-02-22T09:21:38;8.60;99.90
31695;DHT22;18289;51.330;4.946;2023-02-22T09:24:05;8.40;99.90
31695;DHT22;18289;51.330;4.946;2023-02-22T09:26:37;8.60;99.90
31695;DHT22;18289;51.330;4.946;2023-02-22T09:29:08;8.80;99.90
31695;DHT22;18289;51.330;4.946;2023-02-22T09:31:36;8.80;99.90
31695;DHT22;18289;51.330;4.946;2023-02-22T09:34:03;8.70;99.90
31695;DHT22;18289;51.330;4.946;2023-02-22T09:36:31;8.70;99.90
31695;DHT22;18289;51.330;4.946;2023-02-22T09:38:56;8.80;99.90
31695;DHT22;18289;51.330;4.946;2023-02-22T09:47:02;8.90;99.90
31695;DHT22;18289;51.330;4.946;2023-02-22T09:49:57;8.80;99.90
31695;DHT22;18289;51.330;4.946;2023-02-22T09:52:44;9.00;99.90
31695;DHT22;18289;51.330;4.946;2023-02-22T09:55:28;9.10;99.90
31695;DHT22;18289;51.330;4.946;2023-02-22T09:58:01;9.30;99.90
31695;DHT22;18289;51.330;4.946;2023-02-22T10:00:31;9.20;99.90
31695;DHT22;18289;51.330;4.946;2023-02-22T10:05:41;9.40;99.90
31695;DHT22;18289;51.330;4.946;2023-02-22T10:08:16;9.60;99.90
31695;DHT22;18289;51.330;4.946;2023-02-22T10:10:45;9.70;99.90
31695;DHT22;18289;51.330;4.946;2023-02-22T10:16:08;9.90;99.90
31695;DHT22;18289;51.330;4.946;2023-02-22T10:26:15;10.20;99.90
31695;DHT22;18289;51.330;4.946;2023-02-22T10:30:01;10.20;99.90
31695;DHT22;18289;51.330;4.946;2023-02-22T10:32:00;10.20;99.90
31695;DHT22;18289;51.330;4.946;2023-02-22T10:34:30;10.20;99.90
31695;DHT22;18289;51.330;4.946;2023-02-22T10:37:03;10.20;99.90
31695;DHT22;18289;51.330;4.946;2023-02-22T10:39:34;10.20;99.90
31695;DHT22;18289;51.330;4.946;2023-02-22T10:42:03;10.30;99.90
31695;DHT22;18289;51.330;4.946;2023-02-22T10:44:39;10.30;99.90
31695;DHT22;18289;51.330;4.946;2023-02-22T10:47:10;10.30;99.90
31695;DHT22;18289;51.330;4.946;2023-02-22T10:49:42;10.30;99.90
31695;DHT22;18289;51.330;4.946;2023-02-22T10:54:47;10.10;99.90
31695;DHT22;18289;51.330;4.946;2023-02-22T10:57:20;10.00;99.90
31695;DHT22;18289;51.330;4.946;2023-02-22T10:59:47;9.80;99.90
31695;DHT22;18289;51.330;4.946;2023-02-22T11:04:49;9.50;99.90
31695;DHT22;18289;51.330;4.946;2023-02-22T11:07:33;9.40;99.90
31695;DHT22;18289;51.330;4.946;2023-02-22T11:10:04;9.40;99.90
31695;DHT22;18289;51.330;4.946;2023-02-22T11:12:36;9.50;99.90
31695;DHT22;18289;51.330;4.946;2023-02-22T11:15:26;9.40;99.90
31695;DHT22;18289;51.330;4.946;2023-02-22T11:17:55;9.40;99.90
31695;DHT22;18289;51.330;4.946;2023-02-22T11:20:27;9.50;99.90
31695;DHT22;18289;51.330;4.946;2023-02-22T11:22:59;9.50;99.90
31695;DHT22;18289;51.330;4.946;2023-02-22T11:25:40;9.70;99.90
31695;DHT22;18289;51.330;4.946;2023-02-22T11:28:15;9.90;99.90
31695;DHT22;18289;51.330;4.946;2023-02-22T11:30:45;10.00;99.90
31695;DHT22;18289;51.330;4.946;2023-02-22T11:33:18;10.00;99.90
31695;DHT22;18289;51.330;4.946;2023-02-22T11:35:53;10.10;99.90
31695;DHT22;18289;51.330;4.946;2023-02-22T11:43:42;10.60;99.90
31695;DHT22;18289;51.330;4.946;2023-02-22T11:46:22;10.80;99.90
31695;DHT22;18289;51.330;4.946;2023-02-22T11:49:09;11.10;99.90
31695;DHT22;18289;51.330;4.946;2023-02-22T11:57:14;11.90;99.90
31695;DHT22;18289;51.330;4.946;2023-02-22T12:00:04;12.30;99.90
31695;DHT22;18289;51.330;4.946;2023-02-22T12:05:58;12.50;99.90
31695;DHT22;18289;51.330;4.946;2023-02-22T12:21:52;12.20;99.90
31695;DHT22;18289;51.330;4.946;2023-02-22T12:24:22;12.30;99.90
31695;DHT22;18289;51.330;4.946;2023-02-22T12:27:21;12.30;99.90
31695;DHT22;18289;51.330;4.946;2023-02-22T12:29:51;12.50;99.90
31695;DHT22;18289;51.330;4.946;2023-02-22T12:32:45;12.60;99.90
31695;DHT22;18289;51.330;4.946;2023-02-22T12:35:25;12.90;99.90
31695;DHT22;18289;51.330;4.946;2023-02-22T12:41:12;13.00;99.90
31695;DHT22;18289;51.330;4.946;2023-02-22T12:43:52;12.80;99.90
31695;DHT22;18289;51.330;4.946;2023-02-22T12:46:37;12.70;99.90
31695;DHT22;18289;51.330;4.946;2023-02-22T12:49:19;12.70;99.90
31695;DHT22;18289;51.330;4.946;2023-02-22T13:00:00;12.50;99.90
31695;DHT22;18289;51.330;4.946;2023-02-22T13:02:33;12.60;99.90
31695;DHT22;18289;51.330;4.946;2023-02-22T13:05:01;12.50;99.90
31695;DHT22;18289;51.330;4.946;2023-02-22T13:10:56;12.40;99.90
31695;DHT22;18289;51.330;4.946;2023-02-22T13:22:29;12.50;99.90
31695;DHT22;18289;51.330;4.946;2023-02-22T13:27:41;12.70;99.90
31695;DHT22;18289;51.330;4.946;2023-02-22T13:30:26;12.80;99.90
31695;DHT22;18289;51.330;4.946;2023-02-22T13:32:57;13.00;99.90
31695;DHT22;18289;51.330;4.946;2023-02-22T13:35:49;12.90;99.90
31695;DHT22;18289;51.330;4.946;2023-02-22T13:47:46;12.80;99.90
31695;DHT22;18289;51.330;4.946;2023-02-22T13:53:06;12.90;99.90
31695;DHT22;18289;51.330;4.946;2023-02-22T13:55:35;12.90;99.90
31695;DHT22;18289;51.330;4.946;2023-02-22T13:58:08;12.90;99.90
31695;DHT22;18289;51.330;4.946;2023-02-22T14:08:07;12.70;99.90
31695;DHT22;18289;51.330;4.946;2023-02-22T14:10:56;12.70;99.90
31695;DHT22;18289;51.330;4.946;2023-02-22T14:13:28;12.70;99.90
31695;DHT22;18289;51.330;4.946;2023-02-22T14:18:42;12.70;99.90
31695;DHT22;18289;51.330;4.946;2023-02-22T14:21:13;12.90;99.90
31695;DHT22;18289;51.330;4.946;2023-02-22T14:23:51;12.80;99.90
31695;DHT22;18289;51.330;4.946;2023-02-22T14:26:33;12.80;99.90
31695;DHT22;18289;51.330;4.946;2023-02-22T14:31:29;12.90;99.90
31695;DHT22;18289;51.330;4.946;2023-02-22T14:34:02;12.80;99.90
31695;DHT22;18289;51.330;4.946;2023-02-22T14:39:46;12.70;99.90
31695;DHT22;18289;51.330;4.946;2023-02-22T14:42:34;12.60;99.90
31695;DHT22;18289;51.330;4.946;2023-02-22T14:47:55;12.50;99.90
31695;DHT22;18289;51.330;4.946;2023-02-22T14:56:07;12.40;99.90
31695;DHT22;18289;51.330;4.946;2023-02-22T14:58:51;12.40;99.90
31695;DHT22;18289;51.330;4.946;2023-02-22T15:01:30;12.30;99.90
31695;DHT22;18289;51.330;4.946;2023-02-22T15:04:17;12.30;99.90
31695;DHT22;18289;51.330;4.946;2023-02-22T15:06:43;12.30;99.90
31695;DHT22;18289;51.330;4.946;2023-02-22T15:11:41;12.20;99.90
31695;DHT22;18289;51.330;4.946;2023-02-22T15:14:17;12.10;99.90
31695;DHT22;18289;51.330;4.946;2023-02-22T15:16:51;12.10;99.90
31695;DHT22;18289;51.330;4.946;2023-02-22T15:19:25;12.00;99.90
31695;DHT22;18289;51.330;4.946;2023-02-22T15:21:53;12.10;99.90
31695;DHT22;18289;51.330;4.946;2023-02-22T15:24:36;12.00;99.90
31695;DHT22;18289;51.330;4.946;2023-02-22T15:27:07;11.90;99.90
31695;DHT22;18289;51.330;4.946;2023-02-22T15:29:39;11.80;99.90
31695;DHT22;18289;51.330;4.946;2023-02-22T15:32:34;11.80;99.90
31695;DHT22;18289;51.330;4.946;2023-02-22T15:37:46;11.70;99.90
31695;DHT22;18289;51.330;4.946;2023-02-22T15:40:15;11.60;99.90
31695;DHT22;18289;51.330;4.946;2023-02-22T15:42:52;11.70;99.90
31695;DHT22;18289;51.330;4.946;2023-02-22T15:45:21;11.70;99.90
31695;DHT22;18289;51.330;4.946;2023-02-22T15:47:50;11.70;99.90
31695;DHT22;18289;51.330;4.946;2023-02-22T15:53:23;11.80;99.90
31695;DHT22;18289;51.330;4.946;2023-02-22T15:55:56;11.80;99.90
31695;DHT22;18289;51.330;4.946;2023-02-22T15:58:25;11.80;99.90
31695;DHT22;18289;51.330;4.946;2023-02-22T16:01:11;11.70;99.90
31695;DHT22;18289;51.330;4.946;2023-02-22T16:03:46;11.70;99.90
31695;DHT22;18289;51.330;4.946;2023-02-22T16:08:50;11.50;99.90
31695;DHT22;18289;51.330;4.946;2023-02-22T16:11:28;11.50;99.90
31695;DHT22;18289;51.330;4.946;2023-02-22T16:14:21;11.60;99.90
31695;DHT22;18289;51.330;4.946;2023-02-22T16:16:47;11.50;99.90
31695;DHT22;18289;51.330;4.946;2023-02-22T16:19:34;11.50;99.90
31695;DHT22;18289;51.330;4.946;2023-02-22T16:22:03;11.40;99.90
31695;DHT22;18289;51.330;4.946;2023-02-22T16:24:34;11.30;99.90
31695;DHT22;18289;51.330;4.946;2023-02-22T16:27:22;11.30;99.90
31695;DHT22;18289;51.330;4.946;2023-02-22T16:32:44;11.30;99.90
31695;DHT22;18289;51.330;4.946;2023-02-22T16:35:11;11.20;99.90
31695;DHT22;18289;51.330;4.946;2023-02-22T16:37:46;11.20;99.90
31695;DHT22;18289;51.330;4.946;2023-02-22T16:40:25;11.00;99.90
31695;DHT22;18289;51.330;4.946;2023-02-22T16:42:51;11.10;99.90
31695;DHT22;18289;51.330;4.946;2023-02-22T16:45:18;11.00;99.90
31695;DHT22;18289;51.330;4.946;2023-02-22T16:47:44;10.90;99.90
31695;DHT22;18289;51.330;4.946;2023-02-22T16:50:10;10.80;99.90
31695;DHT22;18289;51.330;4.946;2023-02-22T16:52:40;10.80;99.90
31695;DHT22;18289;51.330;4.946;2023-02-22T16:55:10;10.60;99.90
31695;DHT22;18289;51.330;4.946;2023-02-22T16:57:38;10.50;99.90
31695;DHT22;18289;51.330;4.946;2023-02-22T17:00:05;10.40;99.90
31695;DHT22;18289;51.330;4.946;2023-02-22T17:02:38;10.30;99.90
31695;DHT22;18289;51.330;4.946;2023-02-22T17:05:04;10.30;99.90
31695;DHT22;18289;51.330;4.946;2023-02-22T17:07:29;10.30;99.90
31695;DHT22;18289;51.330;4.946;2023-02-22T17:09:56;10.30;99.90
31695;DHT22;18289;51.330;4.946;2023-02-22T17:12:26;10.30;99.90
31695;DHT22;18289;51.330;4.946;2023-02-22T17:14:53;10.30;99.90
31695;DHT22;18289;51.330;4.946;2023-02-22T17:17:19;10.30;99.90
31695;DHT22;18289;51.330;4.946;2023-02-22T17:19:44;10.30;99.90
31695;DHT22;18289;51.330;4.946;2023-02-22T17:22:20;10.30;99.90
31695;DHT22;18289;51.330;4.946;2023-02-22T17:24:46;10.20;99.90
31695;DHT22;18289;51.330;4.946;2023-02-22T17:27:13;10.10;99.90
31695;DHT22;18289;51.330;4.946;2023-02-22T17:29:39;10.10;99.90
31695;DHT22;18289;51.330;4.946;2023-02-22T17:32:06;10.10;99.90
31695;DHT22;18289;51.330;4.946;2023-02-22T17:34:32;10.10;99.90
31695;DHT22;18289;51.330;4.946;2023-02-22T17:36:57;10.10;99.90
31695;DHT22;18289;51.330;4.946;2023-02-22T17:39:23;10.00;99.90
31695;DHT22;18289;51.330;4.946;2023-02-22T17:41:51;10.10;99.90
31695;DHT22;18289;51.330;4.946;2023-02-22T17:44:24;10.10;99.90
31695;DHT22;18289;51.330;4.946;2023-02-22T17:46:51;10.10;99.90
31695;DHT22;18289;51.330;4.946;2023-02-22T17:49:17;10.10;99.90
31695;DHT22;18289;51.330;4.946;2023-02-22T17:51:43;10.10;99.90
31695;DHT22;18289;51.330;4.946;2023-02-22T17:54:15;10.20;99.90
31695;DHT22;18289;51.330;4.946;2023-02-22T17:56:41;10.20;99.90
31695;DHT22;18289;51.330;4.946;2023-02-22T17:59:07;10.30;99.90
31695;DHT22;18289;51.330;4.946;2023-02-22T18:01:33;10.20;99.90
31695;DHT22;18289;51.330;4.946;2023-02-22T18:04:00;10.30;99.90
31695;DHT22;18289;51.330;4.946;2023-02-22T18:06:29;10.40;99.90
31695;DHT22;18289;51.330;4.946;2023-02-22T18:08:56;10.40;99.90
31695;DHT22;18289;51.330;4.946;2023-02-22T18:11:23;10.40;99.90
31695;DHT22;18289;51.330;4.946;2023-02-22T18:13:51;10.40;99.90
31695;DHT22;18289;51.330;4.946;2023-02-22T18:16:18;10.30;99.90
31695;DHT22;18289;51.330;4.946;2023-02-22T18:18:43;10.40;99.90
31695;DHT22;18289;51.330;4.946;2023-02-22T18:21:09;10.40;99.90
31695;DHT22;18289;51.330;4.946;2023-02-22T18:23:39;10.40;99.90
31695;DHT22;18289;51.330;4.946;2023-02-22T18:26:05;10.30;99.90
31695;DHT22;18289;51.330;4.946;2023-02-22T18:28:31;10.30;99.90
31695;DHT22;18289;51.330;4.946;2023-02-22T18:30:57;10.20;99.90
31695;DHT22;18289;51.330;4.946;2023-02-22T18:33:24;10.20;99.90
31695;DHT22;18289;51.330;4.946;2023-02-22T18:35:50;10.20;99.90
31695;DHT22;18289;51.330;4.946;2023-02-22T18:38:18;10.20;99.90